sensor_id;sensor_type;location;lat;lon;timestamp;P1;durP1;ratioP1;P2;durP2;ratioP2
56541;SDS011;42438;53.174;6.730;2023-06-14T00:02:13;3.95;;;1.90;;
56541;SDS011;42438;53.174;6.730;2023-06-14T00:04:44;4.80;;;1.90;;
56541;SDS011;42438;53.174;6.730;2023-06-14T00:07:18;10.88;;;2.05;;
56541;SDS011;42438;53.174;6.730;2023-06-14T00:09:53;7.32;;;2.03;;
56541;SDS011;42438;53.174;6.730;2023-06-14T00:12:24;5.95;;;1.65;;
56541;SDS011;42438;53.174;6.730;2023-06-14T00:14:55;5.15;;;1.88;;
56541;SDS011;42438;53.174;6.730;2023-06-14T00:17:25;3.22;;;1.85;;
56541;SDS011;42438;53.174;6.730;2023-06-14T00:20:00;4.75;;;2.08;;
56541;SDS011;42438;53.174;6.730;2023-06-14T00:22:33;5.75;;;1.92;;
56541;SDS011;42438;53.174;6.730;2023-06-14T00:25:06;5.20;;;1.70;;
56541;SDS011;42438;53.174;6.730;2023-06-14T00:27:37;4.53;;;1.90;;
56541;SDS011;42438;53.174;6.730;2023-06-14T00:30:08;9.57;;;2.10;;
56541;SDS011;42438;53.174;6.730;2023-06-14T00:32:39;4.43;;;1.80;;
56541;SDS011;42438;53.174;6.730;2023-06-14T00:35:12;3.47;;;1.70;;
56541;SDS011;42438;53.174;6.730;2023-06-14T00:37:43;3.40;;;1.88;;
56541;SDS011;42438;53.174;6.730;2023-06-14T00:40:14;3.20;;;1.75;;
56541;SDS011;42438;53.174;6.730;2023-06-14T00:42:45;5.80;;;1.80;;
56541;SDS011;42438;53.174;6.730;2023-06-14T00:45:15;3.05;;;1.40;;
56541;SDS011;42438;53.174;6.730;2023-06-14T00:47:46;5.22;;;1.70;;
56541;SDS011;42438;53.174;6.730;2023-06-14T00:50:18;3.22;;;1.60;;
56541;SDS011;42438;53.174;6.730;2023-06-14T00:52:51;3.50;;;1.40;;
56541;SDS011;42438;53.174;6.730;2023-06-14T00:55:22;3.75;;;1.70;;
56541;SDS011;42438;53.174;6.730;2023-06-14T00:57:54;3.05;;;1.60;;
56541;SDS011;42438;53.174;6.730;2023-06-14T01:00:25;6.32;;;1.63;;
56541;SDS011;42438;53.174;6.730;2023-06-14T01:02:58;7.57;;;2.00;;
56541;SDS011;42438;53.174;6.730;2023-06-14T01:05:29;5.32;;;1.75;;
56541;SDS011;42438;53.174;6.730;2023-06-14T01:10:56;5.82;;;1.75;;
56541;SDS011;42438;53.174;6.730;2023-06-14T01:13:36;3.13;;;1.60;;
56541;SDS011;42438;53.174;6.730;2023-06-14T01:16:09;2.65;;;1.73;;
56541;SDS011;42438;53.174;6.730;2023-06-14T01:18:40;5.35;;;1.90;;
56541;SDS011;42438;53.174;6.730;2023-06-14T01:21:24;4.72;;;2.03;;
56541;SDS011;42438;53.174;6.730;2023-06-14T01:23:55;4.55;;;1.42;;
56541;SDS011;42438;53.174;6.730;2023-06-14T01:26:26;3.90;;;1.55;;
56541;SDS011;42438;53.174;6.730;2023-06-14T01:28:59;11.40;;;2.30;;
56541;SDS011;42438;53.174;6.730;2023-06-14T01:31:30;4.13;;;1.50;;
56541;SDS011;42438;53.174;6.730;2023-06-14T01:34:11;4.55;;;1.92;;
56541;SDS011;42438;53.174;6.730;2023-06-14T01:36:43;5.18;;;1.85;;
56541;SDS011;42438;53.174;6.730;2023-06-14T01:39:15;3.55;;;1.67;;
56541;SDS011;42438;53.174;6.730;2023-06-14T01:41:47;4.60;;;1.90;;
56541;SDS011;42438;53.174;6.730;2023-06-14T01:44:19;3.35;;;1.65;;
56541;SDS011;42438;53.174;6.730;2023-06-14T01:46:50;3.60;;;1.77;;
56541;SDS011;42438;53.174;6.730;2023-06-14T01:49:21;2.78;;;1.45;;
56541;SDS011;42438;53.174;6.730;2023-06-14T01:51:52;3.10;;;1.70;;
56541;SDS011;42438;53.174;6.730;2023-06-14T01:54:22;5.97;;;1.83;;
56541;SDS011;42438;53.174;6.730;2023-06-14T01:56:55;3.92;;;1.70;;
56541;SDS011;42438;53.174;6.730;2023-06-14T01:59:26;5.40;;;1.80;;
56541;SDS011;42438;53.174;6.730;2023-06-14T02:01:57;3.03;;;1.73;;
56541;SDS011;42438;53.174;6.730;2023-06-14T02:04:28;4.05;;;1.80;;
56541;SDS011;42438;53.174;6.730;2023-06-14T02:06:58;3.17;;;1.80;;
56541;SDS011;42438;53.174;6.730;2023-06-14T02:09:29;4.60;;;2.00;;
56541;SDS011;42438;53.174;6.730;2023-06-14T02:12:00;5.03;;;2.10;;
56541;SDS011;42438;53.174;6.730;2023-06-14T02:14:31;5.70;;;2.15;;
56541;SDS011;42438;53.174;6.730;2023-06-14T02:17:02;4.85;;;1.73;;
56541;SDS011;42438;53.174;6.730;2023-06-14T02:19:33;3.47;;;1.55;;
56541;SDS011;42438;53.174;6.730;2023-06-14T02:22:04;4.13;;;2.30;;
56541;SDS011;42438;53.174;6.730;2023-06-14T02:24:34;3.90;;;1.60;;
56541;SDS011;42438;53.174;6.730;2023-06-14T02:27:05;3.15;;;1.63;;
56541;SDS011;42438;53.174;6.730;2023-06-14T02:29:36;4.97;;;2.13;;
56541;SDS011;42438;53.174;6.730;2023-06-14T02:32:07;3.35;;;1.80;;
56541;SDS011;42438;53.174;6.730;2023-06-14T02:34:38;4.93;;;2.38;;
56541;SDS011;42438;53.174;6.730;2023-06-14T02:37:11;3.53;;;1.90;;
56541;SDS011;42438;53.174;6.730;2023-06-14T02:39:43;4.88;;;1.88;;
56541;SDS011;42438;53.174;6.730;2023-06-14T02:42:13;3.53;;;1.67;;
56541;SDS011;42438;53.174;6.730;2023-06-14T02:44:44;5.47;;;2.35;;
56541;SDS011;42438;53.174;6.730;2023-06-14T02:47:17;4.25;;;2.13;;
56541;SDS011;42438;53.174;6.730;2023-06-14T02:49:48;4.65;;;2.30;;
56541;SDS011;42438;53.174;6.730;2023-06-14T02:52:19;7.00;;;2.30;;
56541;SDS011;42438;53.174;6.730;2023-06-14T02:54:50;4.00;;;2.17;;
56541;SDS011;42438;53.174;6.730;2023-06-14T02:57:21;3.65;;;2.25;;
56541;SDS011;42438;53.174;6.730;2023-06-14T02:59:53;6.22;;;2.35;;
56541;SDS011;42438;53.174;6.730;2023-06-14T03:02:23;4.90;;;2.10;;
56541;SDS011;42438;53.174;6.730;2023-06-14T03:04:54;5.53;;;2.40;;
56541;SDS011;42438;53.174;6.730;2023-06-14T03:07:25;5.20;;;2.50;;
56541;SDS011;42438;53.174;6.730;2023-06-14T03:09:57;5.10;;;2.25;;
56541;SDS011;42438;53.174;6.730;2023-06-14T03:12:28;6.30;;;2.88;;
56541;SDS011;42438;53.174;6.730;2023-06-14T03:14:59;5.82;;;2.50;;
56541;SDS011;42438;53.174;6.730;2023-06-14T03:17:34;9.13;;;2.97;;
56541;SDS011;42438;53.174;6.730;2023-06-14T03:20:08;6.95;;;2.67;;
56541;SDS011;42438;53.174;6.730;2023-06-14T03:22:39;5.47;;;2.53;;
56541;SDS011;42438;53.174;6.730;2023-06-14T03:25:11;4.65;;;2.58;;
56541;SDS011;42438;53.174;6.730;2023-06-14T03:27:41;6.53;;;2.70;;
56541;SDS011;42438;53.174;6.730;2023-06-14T03:30:12;4.38;;;2.50;;
56541;SDS011;42438;53.174;6.730;2023-06-14T03:32:43;4.93;;;2.35;;
56541;SDS011;42438;53.174;6.730;2023-06-14T03:35:13;4.50;;;2.58;;
56541;SDS011;42438;53.174;6.730;2023-06-14T03:37:47;4.40;;;2.50;;
56541;SDS011;42438;53.174;6.730;2023-06-14T03:40:18;6.47;;;2.80;;
56541;SDS011;42438;53.174;6.730;2023-06-14T03:42:50;6.20;;;2.63;;
56541;SDS011;42438;53.174;6.730;2023-06-14T03:45:21;6.90;;;2.63;;
56541;SDS011;42438;53.174;6.730;2023-06-14T03:47:52;6.03;;;2.50;;
56541;SDS011;42438;53.174;6.730;2023-06-14T03:50:22;5.60;;;2.50;;
56541;SDS011;42438;53.174;6.730;2023-06-14T03:52:53;5.05;;;3.25;;
56541;SDS011;42438;53.174;6.730;2023-06-14T03:55:24;5.13;;;2.72;;
56541;SDS011;42438;53.174;6.730;2023-06-14T03:57:57;5.68;;;3.08;;
56541;SDS011;42438;53.174;6.730;2023-06-14T04:00:28;5.13;;;2.65;;
56541;SDS011;42438;53.174;6.730;2023-06-14T04:02:59;5.82;;;2.70;;
56541;SDS011;42438;53.174;6.730;2023-06-14T04:05:30;6.10;;;2.60;;
56541;SDS011;42438;53.174;6.730;2023-06-14T04:08:01;5.18;;;2.47;;
56541;SDS011;42438;53.174;6.730;2023-06-14T04:10:31;7.75;;;3.20;;
56541;SDS011;42438;53.174;6.730;2023-06-14T04:13:02;4.43;;;2.63;;
56541;SDS011;42438;53.174;6.730;2023-06-14T04:15:33;5.43;;;2.60;;
56541;SDS011;42438;53.174;6.730;2023-06-14T04:18:04;4.80;;;2.60;;
56541;SDS011;42438;53.174;6.730;2023-06-14T04:20:35;7.75;;;2.97;;
56541;SDS011;42438;53.174;6.730;2023-06-14T04:23:16;5.45;;;2.83;;
56541;SDS011;42438;53.174;6.730;2023-06-14T04:25:51;7.65;;;3.55;;
56541;SDS011;42438;53.174;6.730;2023-06-14T04:28:22;6.13;;;3.20;;
56541;SDS011;42438;53.174;6.730;2023-06-14T04:30:55;6.88;;;3.30;;
56541;SDS011;42438;53.174;6.730;2023-06-14T04:33:26;4.95;;;2.92;;
56541;SDS011;42438;53.174;6.730;2023-06-14T04:35:56;8.65;;;3.28;;
56541;SDS011;42438;53.174;6.730;2023-06-14T04:38:27;6.22;;;3.65;;
56541;SDS011;42438;53.174;6.730;2023-06-14T04:40:58;8.63;;;3.10;;
56541;SDS011;42438;53.174;6.730;2023-06-14T04:43:32;8.10;;;2.80;;
56541;SDS011;42438;53.174;6.730;2023-06-14T04:46:08;7.10;;;3.22;;
56541;SDS011;42438;53.174;6.730;2023-06-14T04:48:40;5.78;;;2.85;;
56541;SDS011;42438;53.174;6.730;2023-06-14T04:51:12;6.88;;;3.25;;
56541;SDS011;42438;53.174;6.730;2023-06-14T04:53:43;6.25;;;2.97;;
56541;SDS011;42438;53.174;6.730;2023-06-14T04:56:15;7.22;;;3.08;;
56541;SDS011;42438;53.174;6.730;2023-06-14T04:58:46;6.45;;;3.22;;
56541;SDS011;42438;53.174;6.730;2023-06-14T05:01:17;7.88;;;3.53;;
56541;SDS011;42438;53.174;6.730;2023-06-14T05:03:48;7.80;;;3.17;;
56541;SDS011;42438;53.174;6.730;2023-06-14T05:06:19;5.22;;;3.30;;
56541;SDS011;42438;53.174;6.730;2023-06-14T05:08:49;5.57;;;3.40;;
56541;SDS011;42438;53.174;6.730;2023-06-14T05:11:20;5.82;;;3.38;;
56541;SDS011;42438;53.174;6.730;2023-06-14T05:13:54;5.13;;;2.80;;
56541;SDS011;42438;53.174;6.730;2023-06-14T05:16:24;6.78;;;2.95;;
56541;SDS011;42438;53.174;6.730;2023-06-14T05:18:57;6.00;;;3.20;;
56541;SDS011;42438;53.174;6.730;2023-06-14T05:21:28;7.05;;;3.15;;
56541;SDS011;42438;53.174;6.730;2023-06-14T05:23:59;7.30;;;2.95;;
56541;SDS011;42438;53.174;6.730;2023-06-14T05:26:30;5.03;;;3.00;;
56541;SDS011;42438;53.174;6.730;2023-06-14T05:29:01;6.13;;;3.25;;
56541;SDS011;42438;53.174;6.730;2023-06-14T05:31:32;9.02;;;3.95;;
56541;SDS011;42438;53.174;6.730;2023-06-14T05:34:03;8.60;;;3.65;;
56541;SDS011;42438;53.174;6.730;2023-06-14T05:36:34;4.40;;;3.00;;
56541;SDS011;42438;53.174;6.730;2023-06-14T05:39:06;11.30;;;3.10;;
56541;SDS011;42438;53.174;6.730;2023-06-14T05:41:38;8.23;;;3.10;;
56541;SDS011;42438;53.174;6.730;2023-06-14T05:44:09;5.88;;;3.15;;
56541;SDS011;42438;53.174;6.730;2023-06-14T05:46:39;7.95;;;2.90;;
56541;SDS011;42438;53.174;6.730;2023-06-14T05:49:11;5.50;;;3.10;;
56541;SDS011;42438;53.174;6.730;2023-06-14T05:51:42;6.32;;;3.15;;
56541;SDS011;42438;53.174;6.730;2023-06-14T05:54:12;5.53;;;2.80;;
56541;SDS011;42438;53.174;6.730;2023-06-14T05:56:43;6.70;;;3.20;;
56541;SDS011;42438;53.174;6.730;2023-06-14T05:59:14;6.97;;;3.03;;
56541;SDS011;42438;53.174;6.730;2023-06-14T06:01:44;5.30;;;2.85;;
56541;SDS011;42438;53.174;6.730;2023-06-14T06:04:15;4.70;;;2.55;;
56541;SDS011;42438;53.174;6.730;2023-06-14T06:06:45;5.68;;;2.90;;
56541;SDS011;42438;53.174;6.730;2023-06-14T06:09:17;6.25;;;2.50;;
56541;SDS011;42438;53.174;6.730;2023-06-14T06:11:49;7.68;;;3.05;;
56541;SDS011;42438;53.174;6.730;2023-06-14T06:14:19;7.97;;;3.03;;
56541;SDS011;42438;53.174;6.730;2023-06-14T06:16:50;6.15;;;2.53;;
56541;SDS011;42438;53.174;6.730;2023-06-14T06:19:22;6.80;;;2.75;;
56541;SDS011;42438;53.174;6.730;2023-06-14T06:21:53;3.92;;;2.42;;
56541;SDS011;42438;53.174;6.730;2023-06-14T06:24:23;5.65;;;2.83;;
56541;SDS011;42438;53.174;6.730;2023-06-14T06:26:54;5.90;;;2.80;;
56541;SDS011;42438;53.174;6.730;2023-06-14T06:29:25;6.45;;;2.83;;
56541;SDS011;42438;53.174;6.730;2023-06-14T06:31:56;5.82;;;2.70;;
56541;SDS011;42438;53.174;6.730;2023-06-14T06:34:27;5.80;;;2.63;;
56541;SDS011;42438;53.174;6.730;2023-06-14T06:36:57;6.20;;;2.72;;
56541;SDS011;42438;53.174;6.730;2023-06-14T06:39:28;6.57;;;2.60;;
56541;SDS011;42438;53.174;6.730;2023-06-14T06:41:59;4.95;;;2.30;;
56541;SDS011;42438;53.174;6.730;2023-06-14T06:44:29;7.93;;;3.05;;
56541;SDS011;42438;53.174;6.730;2023-06-14T06:47:00;5.40;;;2.53;;
56541;SDS011;42438;53.174;6.730;2023-06-14T06:49:30;4.72;;;2.13;;
56541;SDS011;42438;53.174;6.730;2023-06-14T06:52:05;4.88;;;2.58;;
56541;SDS011;42438;53.174;6.730;2023-06-14T06:54:36;4.72;;;2.20;;
56541;SDS011;42438;53.174;6.730;2023-06-14T06:57:07;4.90;;;2.72;;
56541;SDS011;42438;53.174;6.730;2023-06-14T06:59:37;5.50;;;2.67;;
56541;SDS011;42438;53.174;6.730;2023-06-14T07:02:08;5.25;;;2.90;;
56541;SDS011;42438;53.174;6.730;2023-06-14T07:04:39;5.35;;;2.50;;
56541;SDS011;42438;53.174;6.730;2023-06-14T07:07:10;6.18;;;2.60;;
56541;SDS011;42438;53.174;6.730;2023-06-14T07:09:40;5.55;;;3.08;;
56541;SDS011;42438;53.174;6.730;2023-06-14T07:12:12;6.85;;;2.95;;
56541;SDS011;42438;53.174;6.730;2023-06-14T07:14:42;5.88;;;2.80;;
56541;SDS011;42438;53.174;6.730;2023-06-14T07:17:13;6.00;;;2.63;;
56541;SDS011;42438;53.174;6.730;2023-06-14T07:19:44;7.50;;;2.70;;
56541;SDS011;42438;53.174;6.730;2023-06-14T07:22:15;4.07;;;2.42;;
56541;SDS011;42438;53.174;6.730;2023-06-14T07:24:45;4.90;;;2.47;;
56541;SDS011;42438;53.174;6.730;2023-06-14T07:27:16;5.22;;;2.63;;
56541;SDS011;42438;53.174;6.730;2023-06-14T07:29:47;12.23;;;2.92;;
56541;SDS011;42438;53.174;6.730;2023-06-14T07:32:18;5.30;;;2.35;;
56541;SDS011;42438;53.174;6.730;2023-06-14T07:34:50;4.05;;;2.20;;
56541;SDS011;42438;53.174;6.730;2023-06-14T07:37:20;4.53;;;2.50;;
56541;SDS011;42438;53.174;6.730;2023-06-14T07:39:51;3.85;;;2.38;;
56541;SDS011;42438;53.174;6.730;2023-06-14T07:42:21;6.28;;;2.40;;
56541;SDS011;42438;53.174;6.730;2023-06-14T07:44:52;5.05;;;2.78;;
56541;SDS011;42438;53.174;6.730;2023-06-14T07:47:23;3.90;;;2.22;;
56541;SDS011;42438;53.174;6.730;2023-06-14T07:49:55;4.28;;;2.40;;
56541;SDS011;42438;53.174;6.730;2023-06-14T07:52:25;3.63;;;2.35;;
56541;SDS011;42438;53.174;6.730;2023-06-14T07:54:56;4.30;;;2.30;;
56541;SDS011;42438;53.174;6.730;2023-06-14T07:57:27;4.40;;;2.75;;
56541;SDS011;42438;53.174;6.730;2023-06-14T07:59:58;5.25;;;2.40;;
56541;SDS011;42438;53.174;6.730;2023-06-14T08:02:29;6.75;;;2.55;;
56541;SDS011;42438;53.174;6.730;2023-06-14T08:04:59;4.18;;;2.47;;
56541;SDS011;42438;53.174;6.730;2023-06-14T08:07:30;7.30;;;2.67;;
56541;SDS011;42438;53.174;6.730;2023-06-14T08:10:01;5.85;;;2.40;;
56541;SDS011;42438;53.174;6.730;2023-06-14T08:12:31;4.43;;;2.53;;
56541;SDS011;42438;53.174;6.730;2023-06-14T08:15:03;5.82;;;2.38;;
56541;SDS011;42438;53.174;6.730;2023-06-14T08:17:34;4.15;;;2.20;;
56541;SDS011;42438;53.174;6.730;2023-06-14T08:20:05;4.10;;;2.30;;
56541;SDS011;42438;53.174;6.730;2023-06-14T08:22:36;4.50;;;2.47;;
56541;SDS011;42438;53.174;6.730;2023-06-14T08:25:07;4.60;;;2.15;;
56541;SDS011;42438;53.174;6.730;2023-06-14T08:27:38;5.85;;;2.10;;
56541;SDS011;42438;53.174;6.730;2023-06-14T08:30:10;3.95;;;2.13;;
56541;SDS011;42438;53.174;6.730;2023-06-14T08:32:41;5.20;;;2.15;;
56541;SDS011;42438;53.174;6.730;2023-06-14T08:35:11;6.50;;;2.10;;
56541;SDS011;42438;53.174;6.730;2023-06-14T08:37:42;3.50;;;1.90;;
56541;SDS011;42438;53.174;6.730;2023-06-14T08:40:22;7.15;;;2.30;;
56541;SDS011;42438;53.174;6.730;2023-06-14T08:42:54;6.40;;;2.55;;
56541;SDS011;42438;53.174;6.730;2023-06-14T08:45:25;4.50;;;2.30;;
56541;SDS011;42438;53.174;6.730;2023-06-14T08:47:55;4.82;;;2.55;;
56541;SDS011;42438;53.174;6.730;2023-06-14T08:50:29;5.75;;;2.30;;
56541;SDS011;42438;53.174;6.730;2023-06-14T08:53:02;5.25;;;2.50;;
56541;SDS011;42438;53.174;6.730;2023-06-14T08:55:33;3.97;;;2.13;;
56541;SDS011;42438;53.174;6.730;2023-06-14T08:58:05;5.53;;;2.20;;
56541;SDS011;42438;53.174;6.730;2023-06-14T09:00:36;6.00;;;2.58;;
56541;SDS011;42438;53.174;6.730;2023-06-14T09:03:08;4.47;;;2.08;;
56541;SDS011;42438;53.174;6.730;2023-06-14T09:05:43;4.65;;;2.20;;
56541;SDS011;42438;53.174;6.730;2023-06-14T09:08:14;3.95;;;2.50;;
56541;SDS011;42438;53.174;6.730;2023-06-14T09:10:46;6.22;;;2.10;;
56541;SDS011;42438;53.174;6.730;2023-06-14T09:13:17;3.85;;;2.10;;
56541;SDS011;42438;53.174;6.730;2023-06-14T09:15:48;3.33;;;2.00;;
56541;SDS011;42438;53.174;6.730;2023-06-14T09:18:18;5.63;;;2.60;;
56541;SDS011;42438;53.174;6.730;2023-06-14T09:20:52;4.35;;;2.33;;
56541;SDS011;42438;53.174;6.730;2023-06-14T09:23:23;5.78;;;2.60;;
56541;SDS011;42438;53.174;6.730;2023-06-14T09:25:54;5.45;;;2.60;;
56541;SDS011;42438;53.174;6.730;2023-06-14T09:28:27;7.43;;;2.90;;
56541;SDS011;42438;53.174;6.730;2023-06-14T09:30:58;3.40;;;2.40;;
56541;SDS011;42438;53.174;6.730;2023-06-14T09:33:30;6.60;;;2.25;;
56541;SDS011;42438;53.174;6.730;2023-06-14T09:36:01;5.00;;;1.90;;
56541;SDS011;42438;53.174;6.730;2023-06-14T09:38:33;4.82;;;2.22;;
56541;SDS011;42438;53.174;6.730;2023-06-14T09:41:04;5.00;;;2.35;;
56541;SDS011;42438;53.174;6.730;2023-06-14T09:43:35;4.60;;;2.40;;
56541;SDS011;42438;53.174;6.730;2023-06-14T09:46:07;3.85;;;2.05;;
56541;SDS011;42438;53.174;6.730;2023-06-14T09:48:39;3.90;;;1.95;;
56541;SDS011;42438;53.174;6.730;2023-06-14T09:51:13;5.40;;;2.47;;
56541;SDS011;42438;53.174;6.730;2023-06-14T09:53:45;6.50;;;2.55;;
56541;SDS011;42438;53.174;6.730;2023-06-14T09:56:22;3.33;;;1.92;;
56541;SDS011;42438;53.174;6.730;2023-06-14T09:58:58;5.10;;;2.75;;
56541;SDS011;42438;53.174;6.730;2023-06-14T10:01:30;4.60;;;2.20;;
56541;SDS011;42438;53.174;6.730;2023-06-14T10:04:05;3.80;;;2.03;;
56541;SDS011;42438;53.174;6.730;2023-06-14T10:06:37;3.65;;;2.10;;
56541;SDS011;42438;53.174;6.730;2023-06-14T10:09:13;3.13;;;1.90;;
56541;SDS011;42438;53.174;6.730;2023-06-14T10:11:44;3.90;;;2.08;;
56541;SDS011;42438;53.174;6.730;2023-06-14T10:14:16;2.92;;;1.88;;
56541;SDS011;42438;53.174;6.730;2023-06-14T10:16:51;3.97;;;2.27;;
56541;SDS011;42438;53.174;6.730;2023-06-14T10:19:46;3.50;;;2.00;;
56541;SDS011;42438;53.174;6.730;2023-06-14T10:22:29;4.43;;;2.15;;
56541;SDS011;42438;53.174;6.730;2023-06-14T10:25:06;5.20;;;2.00;;
56541;SDS011;42438;53.174;6.730;2023-06-14T10:27:44;4.45;;;1.98;;
56541;SDS011;42438;53.174;6.730;2023-06-14T10:30:16;5.93;;;2.10;;
56541;SDS011;42438;53.174;6.730;2023-06-14T10:33:06;4.47;;;1.85;;
56541;SDS011;42438;53.174;6.730;2023-06-14T10:35:37;4.18;;;2.40;;
56541;SDS011;42438;53.174;6.730;2023-06-14T10:38:14;4.93;;;2.35;;
56541;SDS011;42438;53.174;6.730;2023-06-14T10:40:44;3.35;;;1.90;;
56541;SDS011;42438;53.174;6.730;2023-06-14T10:43:24;3.30;;;2.10;;
56541;SDS011;42438;53.174;6.730;2023-06-14T10:46:11;4.90;;;2.00;;
56541;SDS011;42438;53.174;6.730;2023-06-14T10:48:44;4.82;;;2.20;;
56541;SDS011;42438;53.174;6.730;2023-06-14T10:51:15;4.55;;;2.22;;
56541;SDS011;42438;53.174;6.730;2023-06-14T10:53:53;3.17;;;2.00;;
56541;SDS011;42438;53.174;6.730;2023-06-14T10:56:27;3.33;;;1.90;;
56541;SDS011;42438;53.174;6.730;2023-06-14T10:59:01;4.80;;;1.90;;
56541;SDS011;42438;53.174;6.730;2023-06-14T11:01:36;3.55;;;1.90;;
56541;SDS011;42438;53.174;6.730;2023-06-14T11:04:09;3.97;;;2.30;;
56541;SDS011;42438;53.174;6.730;2023-06-14T11:12:19;3.42;;;1.92;;
56541;SDS011;42438;53.174;6.730;2023-06-14T11:14:51;3.00;;;1.70;;
56541;SDS011;42438;53.174;6.730;2023-06-14T11:17:22;5.78;;;1.85;;
56541;SDS011;42438;53.174;6.730;2023-06-14T11:20:07;3.75;;;2.03;;
56541;SDS011;42438;53.174;6.730;2023-06-14T11:22:45;3.92;;;1.98;;
56541;SDS011;42438;53.174;6.730;2023-06-14T11:25:17;4.03;;;1.60;;
56541;SDS011;42438;53.174;6.730;2023-06-14T11:27:49;4.65;;;1.73;;
56541;SDS011;42438;53.174;6.730;2023-06-14T11:30:20;3.25;;;1.80;;
56541;SDS011;42438;53.174;6.730;2023-06-14T11:32:52;4.43;;;1.70;;
56541;SDS011;42438;53.174;6.730;2023-06-14T11:35:24;2.75;;;1.60;;
56541;SDS011;42438;53.174;6.730;2023-06-14T11:37:57;2.70;;;1.52;;
56541;SDS011;42438;53.174;6.730;2023-06-14T11:40:28;3.33;;;1.65;;
56541;SDS011;42438;53.174;6.730;2023-06-14T11:42:59;3.13;;;1.75;;
56541;SDS011;42438;53.174;6.730;2023-06-14T11:45:31;2.90;;;1.65;;
56541;SDS011;42438;53.174;6.730;2023-06-14T11:48:02;3.15;;;1.65;;
56541;SDS011;42438;53.174;6.730;2023-06-14T11:50:33;2.70;;;1.65;;
56541;SDS011;42438;53.174;6.730;2023-06-14T11:53:08;4.90;;;1.63;;
56541;SDS011;42438;53.174;6.730;2023-06-14T11:55:40;3.90;;;1.60;;
56541;SDS011;42438;53.174;6.730;2023-06-14T11:58:14;2.70;;;1.60;;
56541;SDS011;42438;53.174;6.730;2023-06-14T12:00:45;3.47;;;1.98;;
56541;SDS011;42438;53.174;6.730;2023-06-14T12:03:22;6.07;;;2.20;;
56541;SDS011;42438;53.174;6.730;2023-06-14T12:06:02;3.00;;;1.90;;
56541;SDS011;42438;53.174;6.730;2023-06-14T12:08:39;5.55;;;1.92;;
56541;SDS011;42438;53.174;6.730;2023-06-14T12:11:10;4.03;;;1.95;;
56541;SDS011;42438;53.174;6.730;2023-06-14T12:13:45;3.95;;;1.88;;
56541;SDS011;42438;53.174;6.730;2023-06-14T12:16:15;3.20;;;1.60;;
56541;SDS011;42438;53.174;6.730;2023-06-14T12:18:46;4.47;;;1.88;;
56541;SDS011;42438;53.174;6.730;2023-06-14T12:21:17;2.92;;;1.73;;
56541;SDS011;42438;53.174;6.730;2023-06-14T12:23:53;4.07;;;1.67;;
56541;SDS011;42438;53.174;6.730;2023-06-14T12:26:23;4.65;;;1.75;;
56541;SDS011;42438;53.174;6.730;2023-06-14T12:28:57;3.53;;;1.70;;
56541;SDS011;42438;53.174;6.730;2023-06-14T12:31:27;4.50;;;1.67;;
56541;SDS011;42438;53.174;6.730;2023-06-14T12:33:59;4.32;;;1.90;;
56541;SDS011;42438;53.174;6.730;2023-06-14T12:36:30;3.97;;;1.98;;
56541;SDS011;42438;53.174;6.730;2023-06-14T12:39:02;3.75;;;2.38;;
56541;SDS011;42438;53.174;6.730;2023-06-14T12:41:32;3.65;;;1.75;;
56541;SDS011;42438;53.174;6.730;2023-06-14T12:44:03;3.85;;;1.52;;
56541;SDS011;42438;53.174;6.730;2023-06-14T12:46:34;4.25;;;1.85;;
56541;SDS011;42438;53.174;6.730;2023-06-14T12:49:10;4.82;;;1.63;;
56541;SDS011;42438;53.174;6.730;2023-06-14T12:51:41;6.20;;;2.33;;
56541;SDS011;42438;53.174;6.730;2023-06-14T12:54:12;2.85;;;1.80;;
56541;SDS011;42438;53.174;6.730;2023-06-14T12:56:44;3.35;;;1.90;;
56541;SDS011;42438;53.174;6.730;2023-06-14T12:59:15;3.65;;;1.70;;
56541;SDS011;42438;53.174;6.730;2023-06-14T13:01:45;3.10;;;1.90;;
56541;SDS011;42438;53.174;6.730;2023-06-14T13:04:19;3.65;;;1.65;;
56541;SDS011;42438;53.174;6.730;2023-06-14T13:06:50;3.58;;;1.95;;
56541;SDS011;42438;53.174;6.730;2023-06-14T13:09:20;4.32;;;1.85;;
56541;SDS011;42438;53.174;6.730;2023-06-14T13:11:51;4.88;;;1.90;;
56541;SDS011;42438;53.174;6.730;2023-06-14T13:14:22;3.47;;;1.65;;
56541;SDS011;42438;53.174;6.730;2023-06-14T13:16:52;6.68;;;2.00;;
56541;SDS011;42438;53.174;6.730;2023-06-14T13:19:23;7.25;;;2.00;;
56541;SDS011;42438;53.174;6.730;2023-06-14T13:21:54;5.88;;;2.03;;
56541;SDS011;42438;53.174;6.730;2023-06-14T13:24:24;3.60;;;1.67;;
56541;SDS011;42438;53.174;6.730;2023-06-14T13:26:55;4.93;;;2.00;;
56541;SDS011;42438;53.174;6.730;2023-06-14T13:29:26;4.22;;;2.03;;
56541;SDS011;42438;53.174;6.730;2023-06-14T13:31:57;4.45;;;1.90;;
56541;SDS011;42438;53.174;6.730;2023-06-14T13:34:28;3.67;;;2.13;;
56541;SDS011;42438;53.174;6.730;2023-06-14T13:36:58;3.13;;;2.00;;
56541;SDS011;42438;53.174;6.730;2023-06-14T13:39:29;3.45;;;2.00;;
56541;SDS011;42438;53.174;6.730;2023-06-14T13:42:00;3.17;;;1.85;;
56541;SDS011;42438;53.174;6.730;2023-06-14T13:44:30;4.95;;;2.10;;
56541;SDS011;42438;53.174;6.730;2023-06-14T13:47:01;3.70;;;1.80;;
56541;SDS011;42438;53.174;6.730;2023-06-14T13:49:32;5.07;;;2.20;;
56541;SDS011;42438;53.174;6.730;2023-06-14T13:54:35;2.50;;;1.80;;
56541;SDS011;42438;53.174;6.730;2023-06-14T13:57:06;4.15;;;1.85;;
56541;SDS011;42438;53.174;6.730;2023-06-14T13:59:37;5.68;;;2.15;;
56541;SDS011;42438;53.174;6.730;2023-06-14T14:02:08;3.58;;;2.00;;
56541;SDS011;42438;53.174;6.730;2023-06-14T14:04:39;5.60;;;1.80;;
56541;SDS011;42438;53.174;6.730;2023-06-14T14:07:10;4.22;;;2.53;;
56541;SDS011;42438;53.174;6.730;2023-06-14T14:09:40;3.42;;;2.10;;
56541;SDS011;42438;53.174;6.730;2023-06-14T14:12:13;5.72;;;2.05;;
56541;SDS011;42438;53.174;6.730;2023-06-14T14:14:44;3.40;;;2.30;;
56541;SDS011;42438;53.174;6.730;2023-06-14T14:17:16;3.67;;;2.00;;
56541;SDS011;42438;53.174;6.730;2023-06-14T14:19:47;4.10;;;2.15;;
56541;SDS011;42438;53.174;6.730;2023-06-14T14:22:18;3.80;;;2.00;;
56541;SDS011;42438;53.174;6.730;2023-06-14T14:24:48;4.60;;;2.10;;
56541;SDS011;42438;53.174;6.730;2023-06-14T14:27:19;3.92;;;2.38;;
56541;SDS011;42438;53.174;6.730;2023-06-14T14:29:50;3.97;;;2.10;;
56541;SDS011;42438;53.174;6.730;2023-06-14T14:32:20;5.03;;;2.13;;
56541;SDS011;42438;53.174;6.730;2023-06-14T14:34:51;4.38;;;2.10;;
56541;SDS011;42438;53.174;6.730;2023-06-14T14:37:22;4.43;;;2.10;;
56541;SDS011;42438;53.174;6.730;2023-06-14T14:39:52;3.63;;;2.13;;
56541;SDS011;42438;53.174;6.730;2023-06-14T14:42:23;5.85;;;2.40;;
56541;SDS011;42438;53.174;6.730;2023-06-14T14:44:53;4.20;;;1.98;;
56541;SDS011;42438;53.174;6.730;2023-06-14T14:47:24;3.45;;;2.10;;
56541;SDS011;42438;53.174;6.730;2023-06-14T14:49:55;3.03;;;1.95;;
56541;SDS011;42438;53.174;6.730;2023-06-14T14:52:25;3.42;;;2.03;;
56541;SDS011;42438;53.174;6.730;2023-06-14T14:54:56;3.92;;;1.70;;
56541;SDS011;42438;53.174;6.730;2023-06-14T14:57:27;4.22;;;2.33;;
56541;SDS011;42438;53.174;6.730;2023-06-14T14:59:58;3.42;;;1.98;;
56541;SDS011;42438;53.174;6.730;2023-06-14T15:02:28;4.95;;;2.20;;
56541;SDS011;42438;53.174;6.730;2023-06-14T15:04:59;3.78;;;2.28;;
56541;SDS011;42438;53.174;6.730;2023-06-14T15:07:30;8.88;;;2.38;;
56541;SDS011;42438;53.174;6.730;2023-06-14T15:10:01;6.20;;;2.40;;
56541;SDS011;42438;53.174;6.730;2023-06-14T15:12:32;3.90;;;2.50;;
56541;SDS011;42438;53.174;6.730;2023-06-14T15:15:03;2.92;;;2.00;;
56541;SDS011;42438;53.174;6.730;2023-06-14T15:17:34;3.83;;;2.25;;
56541;SDS011;42438;53.174;6.730;2023-06-14T15:20:05;3.63;;;2.13;;
56541;SDS011;42438;53.174;6.730;2023-06-14T15:22:36;3.50;;;2.13;;
56541;SDS011;42438;53.174;6.730;2023-06-14T15:25:07;3.03;;;2.10;;
56541;SDS011;42438;53.174;6.730;2023-06-14T15:27:38;5.40;;;2.15;;